createdAt,value
2022-07-29T00:02:30.562Z,0.88
2022-07-29T00:07:26.967Z,0.98
2022-07-29T00:12:26.451Z,1.50
2022-07-29T00:17:23.758Z,1.70
2022-07-29T00:22:20.455Z,1.95
2022-07-29T00:27:17.324Z,1.52
2022-07-29T00:32:13.565Z,1.33
2022-07-29T00:37:09.829Z,1.33
2022-07-29T00:42:06.457Z,1.10
2022-07-29T00:47:02.788Z,1.50
2022-07-29T00:51:59.082Z,1.45
2022-07-29T00:56:57.351Z,1.50
2022-07-29T01:01:53.998Z,1.45
2022-07-29T01:06:50.289Z,1.80
2022-07-29T01:11:48.527Z,2.00
2022-07-29T01:16:50.864Z,1.23
2022-07-29T01:21:47.106Z,1.65
2022-07-29T01:26:46.033Z,1.50
2022-07-29T01:31:59.578Z,1.27
2022-07-29T01:37:09.220Z,1.48
2022-07-29T01:42:05.562Z,1.25
2022-07-29T01:47:05.976Z,1.52
2022-07-29T01:52:08.331Z,1.52
2022-07-29T01:57:05.645Z,1.40
2022-07-29T02:02:03.143Z,1.27
2022-07-29T02:07:02.656Z,1.52
2022-07-29T02:12:00.207Z,1.52
2022-07-29T02:16:56.816Z,1.63
2022-07-29T02:21:54.482Z,1.75
2022-07-29T02:26:51.053Z,2.33
2022-07-29T02:31:49.001Z,2.08
2022-07-29T02:36:46.436Z,1.38
2022-07-29T02:41:47.915Z,1.65
2022-07-29T02:46:50.608Z,1.60
2022-07-29T02:56:44.707Z,1.92
2022-07-29T03:01:42.776Z,1.35
2022-07-29T03:06:39.597Z,1.50
2022-07-29T03:11:42.209Z,1.60
2022-07-29T03:16:45.938Z,1.55
2022-07-29T03:21:42.344Z,1.55
2022-07-29T03:26:38.651Z,1.83
2022-07-29T03:31:35.000Z,2.42
2022-07-29T03:36:31.304Z,1.40
2022-07-29T03:41:27.643Z,1.80
2022-07-29T03:46:24.869Z,1.50
2022-07-29T03:51:33.880Z,2.03
2022-07-29T03:56:32.924Z,1.50
2022-07-29T04:01:30.129Z,2.00
2022-07-29T04:06:26.619Z,1.75
2022-07-29T04:11:22.975Z,1.77
2022-07-29T04:16:19.279Z,1.98
2022-07-29T04:21:15.580Z,1.67
2022-07-29T04:26:12.106Z,1.92
2022-07-29T04:31:08.508Z,1.48
2022-07-29T04:36:05.034Z,1.75
2022-07-29T04:41:21.311Z,2.10
2022-07-29T04:46:17.743Z,1.85
2022-07-29T04:51:14.635Z,1.58
2022-07-29T04:56:11.101Z,1.60
2022-07-29T05:01:07.462Z,2.03
2022-07-29T05:06:03.901Z,1.67
2022-07-29T05:11:11.594Z,1.80
2022-07-29T05:16:09.269Z,2.20
2022-07-29T05:21:05.557Z,1.65
2022-07-29T05:26:01.847Z,1.85
2022-07-29T05:30:58.214Z,1.60
2022-07-29T05:35:58.511Z,1.98
2022-07-29T05:40:57.639Z,2.42
2022-07-29T05:45:53.966Z,2.00
2022-07-29T05:50:50.223Z,2.00
2022-07-29T05:55:46.503Z,1.88
2022-07-29T06:00:43.038Z,2.20
2022-07-29T06:05:39.344Z,2.03
2022-07-29T06:10:36.108Z,1.85
2022-07-29T06:15:32.399Z,1.98
2022-07-29T06:20:31.088Z,1.98
2022-07-29T06:25:31.283Z,1.63
2022-07-29T06:30:27.847Z,1.80
2022-07-29T06:35:41.043Z,1.65
2022-07-29T06:41:00.172Z,1.83
2022-07-29T06:45:57.246Z,2.20
2022-07-29T06:50:53.516Z,1.90
2022-07-29T06:55:51.081Z,1.60
2022-07-29T07:00:48.553Z,1.83
2022-07-29T07:05:45.065Z,1.50
2022-07-29T07:10:41.630Z,2.03
2022-07-29T07:15:39.430Z,2.03
2022-07-29T07:20:36.797Z,1.90
2022-07-29T07:25:33.315Z,1.52
2022-07-29T07:30:29.612Z,2.30
2022-07-29T07:35:27.467Z,1.40
2022-07-29T07:40:24.943Z,1.48
2022-07-29T07:45:21.334Z,2.08
2022-07-29T07:50:19.290Z,1.80
2022-07-29T07:55:15.981Z,1.42
2022-07-29T08:00:13.590Z,2.60
2022-07-29T08:05:12.657Z,2.28
2022-07-29T08:10:09.256Z,2.05
2022-07-29T08:15:08.087Z,1.67
2022-07-29T08:20:04.804Z,2.33
2022-07-29T08:25:01.100Z,2.17
2022-07-29T08:29:58.252Z,2.33
2022-07-29T08:34:54.510Z,1.33
2022-07-29T08:39:50.814Z,1.85
2022-07-29T08:44:47.055Z,2.00
2022-07-29T08:49:44.251Z,2.00
2022-07-29T08:54:44.015Z,2.00
2022-07-29T08:59:41.811Z,2.08
2022-07-29T09:04:38.687Z,2.20
2022-07-29T09:09:35.161Z,2.17
2022-07-29T09:14:31.403Z,2.35
2022-07-29T09:19:29.283Z,2.20
2022-07-29T09:24:46.067Z,2.20
2022-07-29T09:29:42.352Z,2.30
2022-07-29T09:34:38.772Z,2.53
2022-07-29T09:39:36.086Z,2.58
2022-07-29T09:44:41.871Z,2.63
2022-07-29T09:49:59.018Z,2.85
2022-07-29T09:55:08.859Z,2.85
2022-07-29T10:00:23.992Z,4.00
2022-07-29T10:05:24.804Z,2.90
2022-07-29T10:10:30.159Z,3.45
2022-07-29T10:15:28.229Z,3.80
2022-07-29T10:20:25.067Z,3.25
2022-07-29T10:25:21.474Z,3.15
2022-07-29T10:30:18.219Z,2.72
2022-07-29T10:35:14.517Z,3.28
2022-07-29T10:40:57.343Z,3.55
2022-07-29T10:46:03.302Z,3.60
2022-07-29T10:51:04.966Z,3.55
2022-07-29T11:01:36.717Z,3.85
2022-07-29T11:06:52.950Z,3.38
2022-07-29T11:11:51.585Z,3.05
2022-07-29T11:17:06.133Z,3.47
2022-07-29T11:22:03.354Z,3.58
2022-07-29T11:27:08.916Z,3.83
2022-07-29T11:32:18.387Z,3.42
2022-07-29T11:42:36.639Z,3.97
2022-07-29T11:47:39.625Z,3.90
2022-07-29T11:52:49.475Z,3.58
2022-07-29T11:57:47.671Z,3.60
2022-07-29T12:03:02.388Z,4.25
2022-07-29T12:07:03.510Z,4.80
2022-07-29T12:08:05.217Z,3.65
2022-07-29T12:13:02.176Z,4.25
2022-07-29T12:18:03.583Z,3.75
2022-07-29T12:28:04.461Z,3.50
2022-07-29T12:33:01.478Z,3.88
2022-07-29T12:37:58.830Z,3.70
2022-07-29T12:43:13.585Z,3.40
2022-07-29T12:48:09.915Z,3.65
2022-07-29T12:53:10.962Z,3.55
2022-07-29T12:58:07.679Z,3.70
2022-07-29T13:03:04.026Z,3.47
2022-07-29T13:08:20.127Z,3.58
2022-07-29T13:13:18.385Z,3.40
2022-07-29T13:18:27.678Z,3.17
2022-07-29T13:23:24.081Z,3.40
2022-07-29T13:28:22.356Z,3.60
2022-07-29T13:33:18.587Z,3.65
2022-07-29T13:38:14.918Z,4.05
2022-07-29T13:43:11.472Z,3.55
2022-07-29T13:48:07.872Z,3.22
2022-07-29T13:53:04.905Z,3.15
2022-07-29T13:58:01.154Z,3.90
2022-07-29T14:03:00.383Z,3.88
2022-07-29T14:07:56.632Z,4.10
2022-07-29T14:12:52.872Z,3.50
2022-07-29T14:17:49.120Z,3.83
2022-07-29T14:22:45.745Z,3.47
2022-07-29T14:27:42.924Z,3.75
2022-07-29T14:32:39.265Z,3.80
2022-07-29T14:37:40.632Z,3.30
2022-07-29T14:42:38.392Z,3.90
2022-07-29T14:47:34.729Z,3.80
2022-07-29T14:52:30.992Z,3.78
2022-07-29T14:57:27.332Z,3.40
2022-07-29T15:02:31.502Z,4.20
2022-07-29T15:07:36.479Z,3.65
2022-07-29T15:12:32.854Z,4.38
2022-07-29T15:17:29.081Z,3.83
2022-07-29T15:22:25.355Z,3.83
2022-07-29T15:27:21.731Z,4.35
2022-07-29T15:32:18.028Z,4.53
2022-07-29T15:37:14.371Z,3.90
2022-07-29T15:42:10.596Z,4.15
2022-07-29T15:47:09.582Z,4.10
2022-07-29T15:52:07.368Z,3.53
2022-07-29T15:57:04.168Z,4.15
2022-07-29T16:02:01.847Z,3.70
2022-07-29T16:06:58.513Z,4.22
2022-07-29T16:11:56.167Z,4.60
2022-07-29T16:16:52.478Z,3.78
2022-07-29T16:21:48.784Z,4.25
2022-07-29T16:26:45.041Z,4.05
2022-07-29T16:31:41.384Z,3.80
2022-07-29T16:36:37.673Z,4.65
2022-07-29T16:41:33.908Z,4.97
2022-07-29T16:46:30.284Z,4.70
2022-07-29T16:51:26.622Z,4.40
2022-07-29T16:56:23.056Z,4.57
2022-07-29T17:01:19.753Z,4.00
2022-07-29T17:06:16.085Z,4.65
2022-07-29T17:11:12.359Z,4.80
2022-07-29T17:16:09.732Z,4.15
2022-07-29T17:21:06.085Z,3.90
2022-07-29T17:26:03.381Z,4.57
2022-07-29T17:30:59.713Z,4.05
2022-07-29T17:36:31.319Z,4.70
2022-07-29T17:41:28.091Z,3.97
2022-07-29T17:46:26.985Z,3.40
2022-07-29T17:51:23.891Z,3.70
2022-07-29T17:56:20.104Z,3.00
2022-07-29T18:01:16.685Z,3.40
2022-07-29T18:06:13.006Z,2.80
2022-07-29T18:11:09.282Z,3.25
2022-07-29T18:16:11.287Z,2.30
2022-07-29T18:21:07.569Z,2.70
2022-07-29T18:26:04.089Z,3.88
2022-07-29T18:31:00.766Z,3.05
2022-07-29T18:36:10.079Z,2.42
2022-07-29T18:41:07.685Z,2.17
2022-07-29T18:46:05.772Z,2.28
2022-07-29T18:51:02.127Z,2.50
2022-07-29T18:56:05.823Z,2.33
2022-07-29T19:01:02.207Z,1.73
2022-07-29T19:05:58.552Z,2.30
2022-07-29T19:10:54.828Z,2.00
2022-07-29T19:15:51.158Z,2.00
2022-07-29T19:20:47.459Z,1.95
2022-07-29T19:25:53.619Z,2.55
2022-07-29T19:30:50.380Z,1.48
2022-07-29T19:35:49.311Z,1.92
2022-07-29T19:40:47.999Z,1.30
2022-07-29T19:45:44.365Z,1.70
2022-07-29T19:50:40.663Z,1.90
2022-07-29T19:55:39.412Z,1.60
2022-07-29T20:00:35.716Z,1.58
2022-07-29T20:05:32.228Z,1.40
2022-07-29T20:10:28.472Z,1.70
2022-07-29T20:15:24.763Z,1.42
2022-07-29T20:20:23.014Z,1.50
2022-07-29T20:25:19.346Z,1.60
2022-07-29T20:30:15.654Z,1.30
2022-07-29T20:35:14.382Z,1.33
2022-07-29T20:40:12.468Z,1.65
2022-07-29T20:45:09.291Z,1.52
2022-07-29T20:50:05.895Z,1.95
2022-07-29T20:55:02.242Z,1.90
2022-07-29T20:59:58.490Z,1.92
2022-07-29T21:04:54.752Z,1.70
2022-07-29T21:09:51.109Z,1.73
2022-07-29T21:14:48.031Z,1.65
2022-07-29T21:19:44.408Z,2.13
2022-07-29T21:24:40.656Z,2.00
2022-07-29T21:29:36.919Z,2.20
2022-07-29T21:34:33.185Z,1.73
2022-07-29T21:39:29.457Z,1.42
2022-07-29T21:44:25.691Z,2.10
2022-07-29T21:49:22.006Z,1.35
2022-07-29T21:54:18.319Z,1.80
2022-07-29T21:59:17.131Z,1.88
2022-07-29T22:04:13.438Z,1.70
2022-07-29T22:09:10.233Z,1.58
2022-07-29T22:14:07.214Z,1.73
2022-07-29T22:19:03.791Z,1.90
2022-07-29T22:24:00.530Z,1.92
2022-07-29T22:28:56.799Z,1.85
2022-07-29T22:33:53.038Z,1.80
2022-07-29T22:38:51.957Z,1.65
2022-07-29T22:43:48.475Z,2.22
2022-07-29T22:48:44.776Z,1.63
2022-07-29T22:53:41.167Z,1.70
2022-07-29T22:58:37.510Z,1.92
2022-07-29T23:03:33.793Z,1.83
2022-07-29T23:08:30.107Z,1.75
2022-07-29T23:13:26.361Z,1.80
2022-07-29T23:18:22.654Z,1.60
2022-07-29T23:23:18.939Z,2.30
2022-07-29T23:28:16.574Z,1.67
2022-07-29T23:33:12.829Z,1.80
2022-07-29T23:38:09.179Z,1.80
2022-07-29T23:43:08.542Z,1.98
2022-07-29T23:48:05.310Z,1.98
2022-07-29T23:53:01.549Z,2.13
2022-07-29T23:57:57.919Z,2.58
